createdAt,value
2018-02-10T00:01:50.769Z,71.20
2018-02-10T00:04:19.676Z,71.21
2018-02-10T00:06:47.981Z,71.39
2018-02-10T00:09:16.315Z,71.42
2018-02-10T00:11:44.772Z,71.28
2018-02-10T00:14:13.887Z,70.73
2018-02-10T00:16:42.221Z,71.48
2018-02-10T00:19:10.576Z,72.03
2018-02-10T00:21:38.926Z,71.99
2018-02-10T00:24:07.244Z,71.96
2018-02-10T00:26:35.978Z,72.23
2018-02-10T00:29:04.541Z,71.57
2018-02-10T00:31:32.902Z,71.49
2018-02-10T00:34:01.275Z,71.36
2018-02-10T00:36:30.413Z,71.34
2018-02-10T00:38:59.306Z,71.31
2018-02-10T00:41:27.716Z,71.82
2018-02-10T00:43:56.090Z,72.57
2018-02-10T00:46:24.437Z,72.62
2018-02-10T00:48:53.273Z,72.34
2018-02-10T00:51:21.643Z,72.12
2018-02-10T00:53:50.851Z,71.88
2018-02-10T00:56:19.212Z,72.39
2018-02-10T00:58:47.540Z,72.67
2018-02-10T01:01:15.957Z,72.36
2018-02-10T01:03:44.351Z,72.98
2018-02-10T01:06:12.756Z,72.99
2018-02-10T01:08:41.179Z,72.76
2018-02-10T01:11:10.028Z,72.52
2018-02-10T01:13:38.421Z,72.14
2018-02-10T01:16:07.507Z,72.56
2018-02-10T01:18:36.633Z,72.70
2018-02-10T01:21:04.969Z,72.92
2018-02-10T01:23:33.376Z,72.39
2018-02-10T01:26:02.545Z,72.24
2018-02-10T01:28:30.925Z,72.48
2018-02-10T01:30:59.307Z,72.74
2018-02-10T01:33:27.877Z,73.06
2018-02-10T01:35:56.183Z,73.45
2018-02-10T01:38:25.283Z,72.79
2018-02-10T01:40:54.384Z,72.96
2018-02-10T01:43:23.482Z,73.25
2018-02-10T01:45:52.561Z,73.76
2018-02-10T01:48:20.916Z,74.02
2018-02-10T01:50:49.228Z,74.07
2018-02-10T01:53:18.300Z,74.16
2018-02-10T01:55:46.808Z,74.24
2018-02-10T01:58:15.143Z,74.03
2018-02-10T02:00:43.489Z,73.46
2018-02-10T02:03:11.814Z,74.25
2018-02-10T02:05:40.124Z,74.25
2018-02-10T02:08:08.596Z,74.51
2018-02-10T02:10:37.715Z,74.02
2018-02-10T02:13:06.071Z,74.42
2018-02-10T02:15:35.308Z,73.67
2018-02-10T02:18:03.845Z,74.43
2018-02-10T02:20:32.162Z,74.21
2018-02-10T02:23:00.481Z,74.09
2018-02-10T02:25:28.823Z,73.59
2018-02-10T02:27:57.144Z,73.66
2018-02-10T02:30:25.477Z,73.71
2018-02-10T02:32:53.844Z,73.54
2018-02-10T02:35:22.181Z,73.62
2018-02-10T02:37:50.509Z,74.08
2018-02-10T02:40:18.940Z,73.98
2018-02-10T02:42:47.382Z,73.91
2018-02-10T02:45:15.691Z,73.78
2018-02-10T02:47:44.008Z,73.85
2018-02-10T02:50:13.070Z,73.09
2018-02-10T02:52:41.393Z,73.22
2018-02-10T02:55:09.759Z,74.05
2018-02-10T02:57:38.070Z,74.06
2018-02-10T03:00:06.404Z,74.39
2018-02-10T03:02:34.935Z,74.93
2018-02-10T03:05:03.260Z,74.71
2018-02-10T03:07:31.592Z,74.91
2018-02-10T03:10:00.010Z,74.17
2018-02-10T03:12:28.354Z,74.27
2018-02-10T03:14:56.675Z,73.96
2018-02-10T03:17:25.209Z,73.66
2018-02-10T03:19:53.556Z,73.70
2018-02-10T03:22:21.895Z,73.86
2018-02-10T03:24:51.121Z,73.39
2018-02-10T03:27:20.258Z,73.28
2018-02-10T03:29:48.677Z,73.77
2018-02-10T03:32:17.369Z,73.47
2018-02-10T03:34:45.726Z,72.59
2018-02-10T03:37:14.171Z,72.71
2018-02-10T03:39:42.630Z,72.87
2018-02-10T03:42:10.974Z,71.88
2018-02-10T03:44:39.355Z,71.79
2018-02-10T03:47:08.267Z,71.39
2018-02-10T03:49:36.636Z,71.49
2018-02-10T03:52:05.024Z,71.24
2018-02-10T03:54:33.392Z,71.68
2018-02-10T03:57:01.739Z,72.40
2018-02-10T03:59:30.090Z,72.75
2018-02-10T04:01:58.539Z,73.83
2018-02-10T04:04:26.929Z,72.94
2018-02-10T04:06:55.266Z,72.58
2018-02-10T04:09:23.814Z,72.82
2018-02-10T04:11:52.984Z,72.64
2018-02-10T04:14:21.367Z,72.57
2018-02-10T04:16:49.812Z,72.46
2018-02-10T04:19:18.187Z,72.02
2018-02-10T04:21:46.512Z,72.14
2018-02-10T04:24:15.910Z,72.20
2018-02-10T04:26:45.084Z,71.99
2018-02-10T04:29:13.736Z,72.35
2018-02-10T04:31:42.323Z,72.20
2018-02-10T04:34:10.636Z,72.32
2018-02-10T04:36:39.001Z,72.31
2018-02-10T04:39:07.405Z,73.30
2018-02-10T04:41:35.773Z,73.27
2018-02-10T04:44:04.162Z,72.94
2018-02-10T04:46:32.532Z,72.35
2018-02-10T04:49:00.903Z,71.68
2018-02-10T04:51:29.265Z,71.97
2018-02-10T04:53:58.186Z,71.92
2018-02-10T04:56:26.611Z,71.60
2018-02-10T04:58:55.093Z,71.44
2018-02-10T05:01:23.436Z,71.55
2018-02-10T05:03:51.808Z,71.44
2018-02-10T05:06:20.163Z,71.38
2018-02-10T05:08:48.568Z,70.99
2018-02-10T05:11:16.888Z,71.12
2018-02-10T05:13:45.219Z,71.06
2018-02-10T05:16:14.051Z,70.95
2018-02-10T05:18:42.392Z,70.75
2018-02-10T05:21:10.778Z,71.29
2018-02-10T05:23:39.236Z,72.42
2018-02-10T05:26:07.593Z,72.81
2018-02-10T05:28:36.015Z,72.42
2018-02-10T05:31:04.606Z,71.81
2018-02-10T05:33:33.048Z,71.35
2018-02-10T05:36:01.566Z,70.51
2018-02-10T05:38:30.046Z,71.04
2018-02-10T05:40:58.396Z,70.81
2018-02-10T05:43:26.814Z,71.13
2018-02-10T05:45:56.077Z,70.73
2018-02-10T05:48:24.493Z,70.25
2018-02-10T05:50:52.842Z,70.03
2018-02-10T05:53:21.241Z,69.69
2018-02-10T05:55:49.621Z,69.98
2018-02-10T05:58:18.043Z,69.10
2018-02-10T06:00:46.789Z,68.71
2018-02-10T06:03:15.164Z,69.79
2018-02-10T06:05:43.516Z,69.87
2018-02-10T06:08:11.855Z,70.09
2018-02-10T06:10:40.954Z,69.35
2018-02-10T06:13:10.120Z,69.32
2018-02-10T06:15:38.614Z,69.28
2018-02-10T06:18:07.071Z,68.99
2018-02-10T06:20:35.388Z,69.43
2018-02-10T06:23:04.028Z,70.21
2018-02-10T06:25:32.452Z,70.61
2018-02-10T06:28:01.565Z,71.21
2018-02-10T06:30:30.008Z,70.72
2018-02-10T06:32:59.208Z,70.69
2018-02-10T06:35:27.578Z,70.78
2018-02-10T06:37:55.940Z,70.99
2018-02-10T06:40:24.350Z,71.46
2018-02-10T06:42:53.485Z,70.66
2018-02-10T06:45:22.228Z,70.86
2018-02-10T06:47:50.581Z,71.80
2018-02-10T06:50:18.926Z,71.68
2018-02-10T06:52:47.370Z,71.89
2018-02-10T06:55:15.721Z,72.91
2018-02-10T06:57:44.142Z,73.53
2018-02-10T07:00:13.328Z,73.45
2018-02-10T07:02:41.658Z,73.36
2018-02-10T07:05:09.992Z,73.33
2018-02-10T07:07:39.200Z,72.88
2018-02-10T07:10:07.541Z,72.75
2018-02-10T07:12:35.868Z,72.44
2018-02-10T07:15:05.010Z,71.74
2018-02-10T07:17:33.325Z,71.62
2018-02-10T07:20:02.496Z,71.09
2018-02-10T07:22:31.668Z,71.45
2018-02-10T07:25:00.077Z,71.16
2018-02-10T07:27:28.398Z,69.21
2018-02-10T07:29:57.391Z,67.41
2018-02-10T07:32:25.747Z,67.20
2018-02-10T07:34:54.125Z,65.99
2018-02-10T07:37:23.266Z,64.26
2018-02-10T07:39:51.652Z,63.10
2018-02-10T07:42:19.978Z,61.58
2018-02-10T07:44:48.358Z,59.94
2018-02-10T07:47:16.712Z,58.84
2018-02-10T07:49:45.038Z,59.47
2018-02-10T07:52:13.913Z,59.66
2018-02-10T07:54:42.251Z,58.93
2018-02-10T07:57:10.587Z,57.71
2018-02-10T07:59:38.955Z,55.82
2018-02-10T08:02:08.017Z,53.99
2018-02-10T08:04:36.352Z,54.45
2018-02-10T08:07:04.703Z,53.79
2018-02-10T08:09:33.791Z,53.06
2018-02-10T08:12:02.141Z,52.84
2018-02-10T08:14:30.881Z,51.54
2018-02-10T08:16:59.208Z,49.55
2018-02-10T08:19:27.529Z,49.38
2018-02-10T08:21:56.639Z,47.42
2018-02-10T08:24:25.656Z,47.38
2018-02-10T08:26:53.976Z,47.28
2018-02-10T08:29:22.326Z,44.82
2018-02-10T08:31:50.629Z,43.69
2018-02-10T08:34:18.948Z,42.27
2018-02-10T08:36:47.433Z,40.55
2018-02-10T08:39:15.807Z,40.40
2018-02-10T08:41:44.145Z,40.94
2018-02-10T08:44:12.504Z,38.28
2018-02-10T08:46:40.835Z,36.91
2018-02-10T08:49:09.187Z,37.46
2018-02-10T08:51:37.530Z,37.45
2018-02-10T08:54:05.877Z,37.16
2018-02-10T08:56:34.224Z,33.98
2018-02-10T08:59:02.912Z,34.74
2018-02-10T09:01:31.322Z,33.21
2018-02-10T09:03:59.596Z,35.82
2018-02-10T09:06:27.967Z,33.39
2018-02-10T09:08:57.068Z,33.86
2018-02-10T09:11:25.392Z,35.55
2018-02-10T09:13:53.748Z,34.15
2018-02-10T09:16:22.087Z,34.77
2018-02-10T09:18:50.428Z,36.98
2018-02-10T09:21:19.068Z,33.89
2018-02-10T09:23:47.427Z,34.05
2018-02-10T09:26:16.536Z,32.49
2018-02-10T09:28:45.684Z,32.17
2018-02-10T09:31:13.996Z,29.67
2018-02-10T09:33:42.341Z,30.27
2018-02-10T09:36:10.712Z,31.86
2018-02-10T09:38:39.066Z,31.29
2018-02-10T09:41:07.458Z,30.47
2018-02-10T09:43:36.400Z,29.98
2018-02-10T09:46:04.806Z,29.61
2018-02-10T09:48:33.901Z,27.08
2018-02-10T09:51:02.996Z,28.53
2018-02-10T09:53:48.701Z,27.72
2018-02-10T09:56:17.117Z,29.35
2018-02-10T09:58:46.321Z,28.42
2018-02-10T10:01:14.758Z,26.00
2018-02-10T10:03:43.651Z,26.75
2018-02-10T10:06:11.963Z,29.00
2018-02-10T10:08:40.309Z,28.15
2018-02-10T10:11:08.666Z,27.81
2018-02-10T10:13:37.744Z,25.37
2018-02-10T10:16:06.072Z,25.14
2018-02-10T10:18:34.479Z,24.95
2018-02-10T10:21:02.831Z,24.54
2018-02-10T10:23:31.165Z,24.88
2018-02-10T10:26:00.713Z,23.46
2018-02-10T10:28:29.060Z,25.94
2018-02-10T10:30:58.204Z,25.17
2018-02-10T10:33:26.567Z,24.73
2018-02-10T10:35:54.983Z,22.90
2018-02-10T10:38:23.382Z,21.97
2018-02-10T10:40:52.531Z,21.02
2018-02-10T10:43:21.425Z,21.98
2018-02-10T10:45:49.793Z,24.20
2018-02-10T10:48:18.256Z,25.56
2018-02-10T10:50:48.220Z,27.78
2018-02-10T10:53:16.561Z,27.30
2018-02-10T10:55:45.047Z,26.57
2018-02-10T10:58:13.416Z,28.69
2018-02-10T11:00:41.760Z,32.83
2018-02-10T11:03:10.140Z,31.26
2018-02-10T11:05:38.508Z,30.30
2018-02-10T11:08:06.886Z,26.84
2018-02-10T11:10:35.436Z,25.12
2018-02-10T11:13:03.798Z,24.00
2018-02-10T11:15:32.144Z,22.02
2018-02-10T11:18:00.494Z,20.85
2018-02-10T11:20:28.812Z,23.44
2018-02-10T11:22:57.953Z,24.92
2018-02-10T11:25:26.411Z,26.86
2018-02-10T11:27:55.525Z,29.63
2018-02-10T11:30:23.887Z,32.76
2018-02-10T11:32:52.650Z,33.02
2018-02-10T11:35:20.977Z,34.52
2018-02-10T11:37:49.368Z,30.94
2018-02-10T11:40:17.787Z,27.68
2018-02-10T11:42:46.224Z,26.31
2018-02-10T11:45:14.657Z,24.34
2018-02-10T11:47:43.053Z,23.91
2018-02-10T11:50:11.400Z,22.23
2018-02-10T11:52:39.853Z,21.04
2018-02-10T11:55:08.489Z,20.84
2018-02-10T11:57:37.560Z,22.72
2018-02-10T12:00:05.875Z,24.05
2018-02-10T12:02:34.221Z,26.18
2018-02-10T12:05:02.758Z,24.67
2018-02-10T12:07:31.087Z,23.26
2018-02-10T12:10:00.281Z,21.78
2018-02-10T12:12:29.445Z,20.41
2018-02-10T12:14:57.786Z,18.51
2018-02-10T12:17:26.366Z,20.12
2018-02-10T12:19:55.476Z,20.38
2018-02-10T12:22:23.811Z,20.10
2018-02-10T12:24:52.175Z,23.05
2018-02-10T12:27:20.531Z,23.46
2018-02-10T12:29:48.851Z,22.40
2018-02-10T12:32:17.247Z,22.21
2018-02-10T12:34:46.628Z,22.54
2018-02-10T12:37:14.973Z,23.78
2018-02-10T12:39:43.429Z,25.13
2018-02-10T12:42:11.771Z,27.79
2018-02-10T12:44:40.242Z,29.25
2018-02-10T12:47:08.588Z,30.60
2018-02-10T12:49:36.900Z,27.59
2018-02-10T12:52:05.235Z,27.34
2018-02-10T12:54:33.616Z,25.77
2018-02-10T12:57:01.929Z,24.31
2018-02-10T12:59:30.238Z,23.34
2018-02-10T13:01:58.930Z,25.10
2018-02-10T13:04:27.374Z,31.41
2018-02-10T13:06:55.733Z,34.67
2018-02-10T13:09:24.607Z,34.97
2018-02-10T13:11:52.955Z,35.82
2018-02-10T13:14:22.087Z,36.21
2018-02-10T13:16:50.449Z,36.70
2018-02-10T13:19:18.765Z,38.06
2018-02-10T13:21:47.134Z,38.33
2018-02-10T13:24:15.751Z,38.77
2018-02-10T13:26:44.111Z,38.53
2018-02-10T13:29:12.474Z,40.57
2018-02-10T13:31:40.832Z,41.88
2018-02-10T13:34:09.145Z,43.60
2018-02-10T13:36:37.464Z,43.18
2018-02-10T13:39:05.822Z,43.93
2018-02-10T13:41:34.168Z,44.34
2018-02-10T13:44:02.501Z,44.69
2018-02-10T13:46:31.269Z,45.29
2018-02-10T13:48:59.615Z,46.61
2018-02-10T13:51:27.944Z,46.84
2018-02-10T13:53:57.072Z,46.96
2018-02-10T13:56:25.384Z,47.97
2018-02-10T13:58:53.754Z,47.56
2018-02-10T14:01:22.109Z,48.63
2018-02-10T14:03:50.459Z,48.02
2018-02-10T14:06:19.560Z,47.68
2018-02-10T14:08:49.188Z,47.95
2018-02-10T14:11:17.542Z,49.18
2018-02-10T14:13:45.836Z,49.38
2018-02-10T14:16:14.272Z,50.04
2018-02-10T14:18:42.639Z,50.38
2018-02-10T14:21:10.998Z,51.22
2018-02-10T14:23:40.292Z,52.55
2018-02-10T14:26:08.638Z,52.87
2018-02-10T14:28:37.789Z,53.58
2018-02-10T14:31:07.628Z,55.07
2018-02-10T14:33:35.942Z,53.73
2018-02-10T14:36:05.013Z,53.13
2018-02-10T14:38:33.368Z,54.06
2018-02-10T14:41:01.763Z,54.26
2018-02-10T14:43:30.106Z,54.16
2018-02-10T14:45:58.465Z,54.97
2018-02-10T14:48:26.776Z,54.01
2018-02-10T14:50:55.895Z,53.22
2018-02-10T14:53:24.335Z,53.63
2018-02-10T14:55:52.645Z,55.13
2018-02-10T14:58:20.975Z,55.00
2018-02-10T15:00:49.360Z,56.17
2018-02-10T15:03:17.721Z,57.17
2018-02-10T15:05:46.040Z,57.58
2018-02-10T15:08:14.423Z,56.90
2018-02-10T15:10:42.812Z,57.27
2018-02-10T15:13:11.198Z,56.47
2018-02-10T15:15:39.831Z,55.90
2018-02-10T15:18:08.336Z,55.46
2018-02-10T15:20:36.681Z,56.52
2018-02-10T15:23:05.820Z,57.23
2018-02-10T15:25:34.166Z,57.61
2018-02-10T15:28:02.573Z,58.05
2018-02-10T15:30:49.060Z,58.71
2018-02-10T15:33:35.098Z,60.28
2018-02-10T15:36:03.439Z,59.85
2018-02-10T15:38:31.782Z,60.26
2018-02-10T15:41:00.892Z,60.73
2018-02-10T15:43:29.260Z,61.19
2018-02-10T15:48:25.965Z,62.27
2018-02-10T15:50:54.501Z,63.33
2018-02-10T15:53:23.642Z,64.44
2018-02-10T15:55:51.973Z,65.06
2018-02-10T15:58:20.301Z,65.90
2018-02-10T16:00:48.647Z,64.69
2018-02-10T16:03:16.957Z,65.31
2018-02-10T16:05:45.342Z,65.18
2018-02-10T16:08:13.690Z,65.00
2018-02-10T16:10:42.027Z,66.27
2018-02-10T16:13:10.748Z,66.00
2018-02-10T16:15:40.072Z,67.36
2018-02-10T16:18:08.725Z,66.97
2018-02-10T16:20:37.874Z,67.50
2018-02-10T16:23:06.364Z,67.65
2018-02-10T16:25:35.668Z,68.14
2018-02-10T16:28:04.079Z,67.48
2018-02-10T16:30:32.432Z,66.57
2018-02-10T16:33:00.770Z,68.15
2018-02-10T16:35:29.346Z,67.47
2018-02-10T16:37:57.719Z,68.73
2018-02-10T16:40:26.056Z,68.30
2018-02-10T16:42:54.452Z,69.51
2018-02-10T16:45:22.781Z,70.60
2018-02-10T16:47:51.106Z,69.72
2018-02-10T16:50:19.454Z,70.61
2018-02-10T16:52:47.804Z,70.67
2018-02-10T16:55:16.188Z,72.01
2018-02-10T16:57:44.803Z,71.23
2018-02-10T17:00:13.138Z,71.27
2018-02-10T17:02:41.685Z,70.49
2018-02-10T17:05:10.069Z,70.44
2018-02-10T17:07:38.409Z,70.12
2018-02-10T17:10:06.820Z,69.50
2018-02-10T17:12:35.175Z,71.08
2018-02-10T17:15:03.572Z,71.21
2018-02-10T17:17:31.909Z,71.76
2018-02-10T17:20:00.525Z,72.49
2018-02-10T17:22:28.863Z,72.54
2018-02-10T17:24:57.215Z,73.25
2018-02-10T17:27:26.383Z,74.59
2018-02-10T17:29:54.731Z,73.47
2018-02-10T17:32:23.074Z,72.74
2018-02-10T17:34:52.277Z,72.83
2018-02-10T17:37:20.638Z,74.18
2018-02-10T17:39:49.086Z,73.88
2018-02-10T17:42:18.501Z,74.73
2018-02-10T17:44:46.871Z,74.62
2018-02-10T17:47:15.225Z,76.24
2018-02-10T17:49:43.601Z,76.31
2018-02-10T17:52:12.006Z,76.51
2018-02-10T17:54:40.359Z,76.47
2018-02-10T17:57:08.812Z,76.20
2018-02-10T17:59:37.167Z,76.03
2018-02-10T18:02:06.312Z,75.90
2018-02-10T18:04:36.051Z,74.16
2018-02-10T18:07:04.387Z,74.98
2018-02-10T18:09:33.496Z,75.57
2018-02-10T18:12:01.846Z,76.19
2018-02-10T18:14:30.215Z,76.35
2018-02-10T18:16:58.556Z,76.35
2018-02-10T18:19:26.917Z,76.83
2018-02-10T18:21:55.257Z,77.11
2018-02-10T18:24:23.605Z,77.17
2018-02-10T18:29:31.716Z,77.29
2018-02-10T18:32:00.105Z,77.12
2018-02-10T18:34:28.482Z,76.83
2018-02-10T18:36:56.820Z,77.10
2018-02-10T18:39:25.177Z,76.00
2018-02-10T18:41:53.501Z,75.79
2018-02-10T18:44:21.878Z,75.55
2018-02-10T18:46:50.425Z,75.72
2018-02-10T18:49:18.782Z,77.04
2018-02-10T18:51:47.131Z,76.58
2018-02-10T18:54:15.785Z,75.95
2018-02-10T18:56:44.911Z,75.85
2018-02-10T18:59:13.236Z,76.06
2018-02-10T19:01:41.586Z,75.50
2018-02-10T19:04:10.031Z,76.68
2018-02-10T19:06:38.433Z,75.68
2018-02-10T19:09:07.104Z,76.56
2018-02-10T19:11:35.421Z,76.12
2018-02-10T19:14:03.783Z,77.25
2018-02-10T19:16:32.255Z,77.42
2018-02-10T19:19:00.619Z,77.02
2018-02-10T19:21:29.006Z,77.00
2018-02-10T19:23:57.368Z,76.22
2018-02-10T19:26:25.746Z,76.19
2018-02-10T19:28:54.206Z,76.41
2018-02-10T19:31:23.664Z,76.78
2018-02-10T19:33:52.050Z,76.64
2018-02-10T19:36:21.298Z,76.97
2018-02-10T19:38:49.732Z,76.34
2018-02-10T19:41:18.114Z,75.94
2018-02-10T19:43:46.478Z,76.53
2018-02-10T19:46:14.859Z,76.15
2018-02-10T19:48:43.185Z,76.82
2018-02-10T19:51:11.530Z,76.70
2018-02-10T19:53:40.117Z,76.42
2018-02-10T19:56:08.425Z,76.76
2018-02-10T19:58:36.791Z,77.01
2018-02-10T20:01:05.159Z,77.06
2018-02-10T20:03:33.570Z,77.71
2018-02-10T20:06:01.940Z,77.77
2018-02-10T20:08:30.363Z,77.42
2018-02-10T20:10:58.749Z,77.65
2018-02-10T20:13:27.085Z,78.44
2018-02-10T20:15:55.917Z,78.42
2018-02-10T20:18:24.272Z,77.98
2018-02-10T20:20:52.620Z,77.48
2018-02-10T20:23:21.083Z,77.93
2018-02-10T20:25:49.656Z,76.61
2018-02-10T20:28:18.008Z,76.72
2018-02-10T20:30:46.381Z,76.37
2018-02-10T20:33:14.759Z,76.55
2018-02-10T20:35:43.874Z,76.15
2018-02-10T20:38:12.825Z,76.50
2018-02-10T20:40:41.225Z,75.95
2018-02-10T20:43:09.593Z,75.85
2018-02-10T20:45:38.315Z,76.01
2018-02-10T20:48:06.807Z,75.20
2018-02-10T20:50:35.127Z,75.13
2018-02-10T20:53:04.280Z,75.46
2018-02-10T20:55:32.672Z,76.24
2018-02-10T20:58:01.007Z,75.76
2018-02-10T21:00:30.468Z,75.89
2018-02-10T21:02:58.956Z,76.67
2018-02-10T21:05:28.208Z,76.83
2018-02-10T21:07:56.557Z,76.78
2018-02-10T21:10:25.650Z,75.70
2018-02-10T21:12:54.773Z,75.50
2018-02-10T21:15:23.289Z,75.62
2018-02-10T21:17:51.682Z,75.95
2018-02-10T21:20:20.088Z,76.20
2018-02-10T21:22:48.561Z,76.06
2018-02-10T21:25:16.897Z,75.32
2018-02-10T21:27:45.273Z,75.81
2018-02-10T21:30:13.653Z,76.11
2018-02-10T21:32:41.985Z,76.58
2018-02-10T21:35:11.069Z,76.21
2018-02-10T21:37:39.452Z,75.95
2018-02-10T21:40:08.594Z,76.65
2018-02-10T21:42:36.968Z,76.69
2018-02-10T21:45:05.449Z,76.31
2018-02-10T21:47:33.873Z,76.47
2018-02-10T21:50:02.252Z,76.51
2018-02-10T21:52:30.730Z,75.83
2018-02-10T21:54:59.128Z,75.87
2018-02-10T21:57:27.476Z,75.56
2018-02-10T21:59:55.813Z,75.38
2018-02-10T22:02:24.134Z,75.21
2018-02-10T22:04:52.557Z,75.29
2018-02-10T22:07:22.188Z,75.55
2018-02-10T22:09:51.292Z,75.97
2018-02-10T22:12:19.609Z,76.01
2018-02-10T22:14:47.995Z,76.07
2018-02-10T22:17:16.348Z,75.97
2018-02-10T22:19:44.725Z,75.87
2018-02-10T22:22:13.108Z,75.97
2018-02-10T22:24:41.448Z,75.55
2018-02-10T22:27:10.561Z,75.50
2018-02-10T22:29:39.227Z,76.38
2018-02-10T22:32:08.318Z,77.19
2018-02-10T22:34:36.702Z,76.69
2018-02-10T22:37:05.835Z,77.07
2018-02-10T22:39:34.232Z,77.03
2018-02-10T22:42:02.599Z,76.06
2018-02-10T22:44:31.025Z,76.78
2018-02-10T22:46:59.365Z,75.78
2018-02-10T22:49:27.698Z,75.79
2018-02-10T22:51:56.327Z,76.22
2018-02-10T22:54:24.669Z,75.90
2018-02-10T22:56:53.089Z,76.33
2018-02-10T22:59:21.463Z,76.54
2018-02-10T23:01:49.830Z,76.51
2018-02-10T23:04:18.175Z,77.07
2018-02-10T23:06:46.581Z,78.15
2018-02-10T23:09:14.937Z,78.17
2018-02-10T23:11:43.283Z,78.87
2018-02-10T23:14:12.107Z,79.02
2018-02-10T23:16:41.277Z,77.97
2018-02-10T23:19:09.676Z,78.58
2018-02-10T23:21:38.980Z,79.81
2018-02-10T23:24:07.361Z,79.08
2018-02-10T23:26:36.558Z,77.61
2018-02-10T23:29:05.728Z,77.50
2018-02-10T23:31:34.056Z,77.42
2018-02-10T23:34:02.423Z,78.81
2018-02-10T23:36:31.913Z,79.59
2018-02-10T23:39:00.253Z,79.53
2018-02-10T23:41:28.702Z,79.44
2018-02-10T23:43:57.107Z,79.10
2018-02-10T23:46:25.428Z,79.12
2018-02-10T23:48:53.762Z,78.72
2018-02-10T23:51:22.145Z,78.85
2018-02-10T23:53:50.517Z,78.10
2018-02-10T23:56:19.726Z,79.09
2018-02-10T23:58:48.449Z,78.99
